createdAt,value
2018-02-09T00:00:17.304Z,76.70
2018-02-09T00:01:17.291Z,78.50
2018-02-09T00:02:17.281Z,71.60
2018-02-09T00:03:17.266Z,73.20
2018-02-09T00:04:17.253Z,75.10
2018-02-09T00:05:17.243Z,72.30
2018-02-09T00:06:17.229Z,75.00
2018-02-09T00:07:17.216Z,72.40
2018-02-09T00:08:17.207Z,75.10
2018-02-09T00:09:17.191Z,75.80
2018-02-09T00:10:17.181Z,73.40
2018-02-09T00:11:17.161Z,79.00
2018-02-09T00:12:17.151Z,80.10
2018-02-09T00:13:17.142Z,78.20
2018-02-09T00:14:17.130Z,77.10
2018-02-09T00:15:17.116Z,78.20
2018-02-09T00:16:17.107Z,79.80
2018-02-09T00:17:17.091Z,76.00
2018-02-09T00:18:17.078Z,74.50
2018-02-09T00:19:17.056Z,78.40
2018-02-09T00:20:17.045Z,77.50
2018-02-09T00:21:17.032Z,82.00
2018-02-09T00:22:17.029Z,79.10
2018-02-09T00:23:17.010Z,77.60
2018-02-09T00:24:16.992Z,78.60
2018-02-09T00:25:16.983Z,71.40
2018-02-09T00:26:16.958Z,75.30
2018-02-09T00:27:16.953Z,75.60
2018-02-09T00:28:16.943Z,72.80
2018-02-09T00:29:16.925Z,73.50
2018-02-09T00:30:16.913Z,76.00
2018-02-09T00:31:16.904Z,71.10
2018-02-09T00:32:16.891Z,73.60
2018-02-09T00:33:16.873Z,72.10
2018-02-09T00:34:16.864Z,73.90
2018-02-09T00:35:16.851Z,73.00
2018-02-09T00:36:16.842Z,76.40
2018-02-09T00:37:16.825Z,75.80
2018-02-09T00:38:16.811Z,76.30
2018-02-09T00:39:16.801Z,77.40
2018-02-09T00:40:16.785Z,74.50
2018-02-09T00:41:16.774Z,71.90
2018-02-09T00:42:16.774Z,74.90
2018-02-09T00:43:16.746Z,73.00
2018-02-09T00:44:16.741Z,72.70
2018-02-09T00:45:16.722Z,77.00
2018-02-09T00:46:16.710Z,74.50
2018-02-09T00:47:16.697Z,74.10
2018-02-09T00:48:16.686Z,70.30
2018-02-09T00:49:16.686Z,69.70
2018-02-09T00:50:16.656Z,75.20
2018-02-09T00:51:16.646Z,74.40
2018-02-09T00:52:16.633Z,78.50
2018-02-09T00:53:16.619Z,76.00
2018-02-09T00:54:16.608Z,69.50
2018-02-09T00:55:16.597Z,74.60
2018-02-09T00:56:16.598Z,71.70
2018-02-09T00:57:16.569Z,74.30
2018-02-09T00:58:16.550Z,70.90
2018-02-09T00:59:16.541Z,73.00
2018-02-09T01:00:16.537Z,75.30
2018-02-09T01:01:16.519Z,71.40
2018-02-09T01:02:16.506Z,71.00
2018-02-09T01:03:16.493Z,73.10
2018-02-09T01:04:16.473Z,75.10
2018-02-09T01:05:16.467Z,70.90
2018-02-09T01:06:16.453Z,71.20
2018-02-09T01:07:16.438Z,73.70
2018-02-09T01:08:16.429Z,75.90
2018-02-09T01:09:16.413Z,77.20
2018-02-09T01:10:16.422Z,72.80
2018-02-09T01:11:16.389Z,76.50
2018-02-09T01:12:16.383Z,75.30
2018-02-09T01:13:16.361Z,73.30
2018-02-09T01:14:16.348Z,70.30
2018-02-09T01:15:16.334Z,72.20
2018-02-09T01:16:16.327Z,73.00
2018-02-09T01:17:16.311Z,74.20
2018-02-09T01:18:16.300Z,73.50
2018-02-09T01:19:16.283Z,74.20
2018-02-09T01:20:16.279Z,73.30
2018-02-09T01:21:16.260Z,72.70
2018-02-09T01:22:16.244Z,72.90
2018-02-09T01:23:16.234Z,75.50
2018-02-09T01:24:16.218Z,70.90
2018-02-09T01:25:16.210Z,75.40
2018-02-09T01:26:16.200Z,73.70
2018-02-09T01:27:16.182Z,70.10
2018-02-09T01:28:16.167Z,72.80
2018-02-09T01:29:16.154Z,71.50
2018-02-09T01:30:16.141Z,72.70
2018-02-09T01:31:16.150Z,70.70
2018-02-09T01:32:16.118Z,73.00
2018-02-09T01:33:16.106Z,70.20
2018-02-09T01:34:16.095Z,72.40
2018-02-09T01:35:16.077Z,72.60
2018-02-09T01:36:16.069Z,71.50
2018-02-09T01:37:16.053Z,72.10
2018-02-09T01:38:16.041Z,70.90
2018-02-09T01:39:16.028Z,71.70
2018-02-09T01:40:16.013Z,72.80
2018-02-09T01:41:16.010Z,73.00
2018-02-09T01:42:15.986Z,74.50
2018-02-09T01:43:15.975Z,72.30
2018-02-09T01:44:15.966Z,72.00
2018-02-09T01:45:15.947Z,72.50
2018-02-09T01:46:15.934Z,71.00
2018-02-09T01:47:15.948Z,69.70
2018-02-09T01:48:15.908Z,70.30
2018-02-09T01:49:15.896Z,73.60
2018-02-09T01:50:15.888Z,75.10
2018-02-09T01:51:15.875Z,73.30
2018-02-09T01:52:15.858Z,73.00
2018-02-09T01:53:15.845Z,74.00
2018-02-09T01:54:15.831Z,73.50
2018-02-09T01:55:15.824Z,75.20
2018-02-09T01:56:15.806Z,72.00
2018-02-09T01:57:15.796Z,74.40
2018-02-09T01:58:15.786Z,76.40
2018-02-09T01:59:15.765Z,73.40
2018-02-09T02:00:15.756Z,71.30
2018-02-09T02:01:15.741Z,74.10
2018-02-09T02:02:15.732Z,68.90
2018-02-09T02:03:15.713Z,71.00
2018-02-09T02:04:15.700Z,74.50
2018-02-09T02:05:15.697Z,74.20
2018-02-09T02:06:15.677Z,71.50
2018-02-09T02:07:15.663Z,72.60
2018-02-09T02:08:15.651Z,69.60
2018-02-09T02:09:15.637Z,75.90
2018-02-09T02:10:15.623Z,69.80
2018-02-09T02:11:15.617Z,73.50
2018-02-09T02:12:15.597Z,72.50
2018-02-09T02:13:15.588Z,72.30
2018-02-09T02:14:15.582Z,71.70
2018-02-09T02:15:15.559Z,69.20
2018-02-09T02:16:15.546Z,73.70
2018-02-09T02:17:15.532Z,68.80
2018-02-09T02:18:15.519Z,75.30
2018-02-09T02:19:15.507Z,73.30
2018-02-09T02:20:15.494Z,69.50
2018-02-09T02:21:15.481Z,72.90
2018-02-09T02:22:15.491Z,70.80
2018-02-09T02:23:15.456Z,71.00
2018-02-09T02:24:15.481Z,69.00
2018-02-09T02:25:15.484Z,75.00
2018-02-09T02:26:15.414Z,71.60
2018-02-09T02:27:15.402Z,73.30
2018-02-09T02:28:15.389Z,67.20
2018-02-09T02:29:15.377Z,74.70
2018-02-09T02:30:15.365Z,69.20
2018-02-09T02:31:15.349Z,72.50
2018-02-09T02:32:15.338Z,69.90
2018-02-09T02:33:15.322Z,75.00
2018-02-09T02:34:15.313Z,70.00
2018-02-09T02:35:15.299Z,74.30
2018-02-09T02:36:15.286Z,73.40
2018-02-09T02:37:15.271Z,67.30
2018-02-09T02:38:15.258Z,72.80
2018-02-09T02:39:15.246Z,81.40
2018-02-09T02:40:15.233Z,74.40
2018-02-09T02:41:15.216Z,77.20
2018-02-09T02:42:15.250Z,70.80
2018-02-09T02:43:15.195Z,74.90
2018-02-09T02:44:15.183Z,76.30
2018-02-09T02:45:15.167Z,70.80
2018-02-09T02:46:15.153Z,75.30
2018-02-09T02:47:15.141Z,77.20
2018-02-09T02:48:15.128Z,78.10
2018-02-09T02:49:15.123Z,73.00
2018-02-09T02:50:15.099Z,73.00
2018-02-09T02:51:15.091Z,77.40
2018-02-09T02:52:15.076Z,72.90
2018-02-09T02:53:15.060Z,77.10
2018-02-09T02:54:15.048Z,77.40
2018-02-09T02:55:15.038Z,74.20
2018-02-09T02:56:15.023Z,71.10
2018-02-09T02:57:15.010Z,74.00
2018-02-09T02:58:15.003Z,80.00
2018-02-09T02:59:14.985Z,70.30
2018-02-09T03:00:14.972Z,72.60
2018-02-09T03:01:14.957Z,72.80
2018-02-09T03:02:14.938Z,74.40
2018-02-09T03:03:14.931Z,72.20
2018-02-09T03:04:14.918Z,73.90
2018-02-09T03:05:14.903Z,76.30
2018-02-09T03:06:14.891Z,75.30
2018-02-09T03:07:14.877Z,73.80
2018-02-09T03:08:14.865Z,75.50
2018-02-09T03:09:14.855Z,71.00
2018-02-09T03:10:14.841Z,72.30
2018-02-09T03:11:14.825Z,76.90
2018-02-09T03:12:14.813Z,76.70
2018-02-09T03:13:14.799Z,77.20
2018-02-09T03:14:14.783Z,76.00
2018-02-09T03:15:14.773Z,72.50
2018-02-09T03:16:14.760Z,76.30
2018-02-09T03:17:14.747Z,72.40
2018-02-09T03:18:14.733Z,71.50
2018-02-09T03:19:14.717Z,71.10
2018-02-09T03:20:14.707Z,74.30
2018-02-09T03:21:14.696Z,72.10
2018-02-09T03:22:14.681Z,73.90
2018-02-09T03:23:14.669Z,73.50
2018-02-09T03:24:14.664Z,74.40
2018-02-09T03:25:14.640Z,70.10
2018-02-09T03:26:14.629Z,76.00
2018-02-09T03:27:14.620Z,70.20
2018-02-09T03:28:14.601Z,69.00
2018-02-09T03:29:14.589Z,74.60
2018-02-09T03:30:14.579Z,70.70
2018-02-09T03:31:14.565Z,73.00
2018-02-09T03:32:14.551Z,72.50
2018-02-09T03:33:14.538Z,70.30
2018-02-09T03:34:14.525Z,72.50
2018-02-09T03:35:14.514Z,75.90
2018-02-09T03:36:14.520Z,72.00
2018-02-09T03:37:14.483Z,74.10
2018-02-09T03:38:14.476Z,71.00
2018-02-09T03:39:14.466Z,71.40
2018-02-09T03:40:14.445Z,70.70
2018-02-09T03:41:14.434Z,70.30
2018-02-09T03:42:14.424Z,72.60
2018-02-09T03:43:14.411Z,70.20
2018-02-09T03:44:14.396Z,73.90
2018-02-09T03:45:14.392Z,71.30
2018-02-09T03:46:14.370Z,71.00
2018-02-09T03:47:14.359Z,73.30
2018-02-09T03:48:14.342Z,71.90
2018-02-09T03:49:14.333Z,69.70
2018-02-09T03:50:14.319Z,72.50
2018-02-09T03:51:14.308Z,73.70
2018-02-09T03:52:14.295Z,72.60
2018-02-09T03:53:14.280Z,71.40
2018-02-09T03:54:14.272Z,74.90
2018-02-09T03:55:14.248Z,70.90
2018-02-09T03:56:14.240Z,69.70
2018-02-09T03:57:14.229Z,73.40
2018-02-09T03:58:14.215Z,73.30
2018-02-09T03:59:14.202Z,76.10
2018-02-09T04:00:14.190Z,71.30
2018-02-09T04:01:14.180Z,70.30
2018-02-09T04:02:14.166Z,70.80
2018-02-09T04:03:14.155Z,71.20
2018-02-09T04:04:14.137Z,68.20
2018-02-09T04:05:14.129Z,70.40
2018-02-09T04:06:14.114Z,67.40
2018-02-09T04:07:14.103Z,70.00
2018-02-09T04:08:14.094Z,72.80
2018-02-09T04:09:14.075Z,68.50
2018-02-09T04:10:14.065Z,69.40
2018-02-09T04:11:14.049Z,68.70
2018-02-09T04:12:14.040Z,69.70
2018-02-09T04:13:14.023Z,70.60
2018-02-09T04:14:14.016Z,70.80
2018-02-09T04:15:13.997Z,72.60
2018-02-09T04:16:13.995Z,73.40
2018-02-09T04:17:13.970Z,72.20
2018-02-09T04:18:13.962Z,71.90
2018-02-09T04:19:13.946Z,70.40
2018-02-09T04:20:13.933Z,69.30
2018-02-09T04:21:13.920Z,68.00
2018-02-09T04:22:13.911Z,66.70
2018-02-09T04:23:13.896Z,74.60
2018-02-09T04:24:13.894Z,73.80
2018-02-09T04:25:13.871Z,70.40
2018-02-09T04:26:13.853Z,72.00
2018-02-09T04:27:13.844Z,68.90
2018-02-09T04:28:13.830Z,72.00
2018-02-09T04:29:13.822Z,72.30
2018-02-09T04:30:13.807Z,67.60
2018-02-09T04:31:13.851Z,72.30
2018-02-09T04:32:13.782Z,71.60
2018-02-09T04:33:13.764Z,73.80
2018-02-09T04:34:13.750Z,71.30
2018-02-09T04:35:13.739Z,71.30
2018-02-09T04:36:13.726Z,68.70
2018-02-09T04:37:13.716Z,71.70
2018-02-09T04:38:13.703Z,70.80
2018-02-09T04:39:13.687Z,68.90
2018-02-09T04:40:13.673Z,68.10
2018-02-09T04:41:13.660Z,68.90
2018-02-09T04:42:13.650Z,70.80
2018-02-09T04:43:13.636Z,73.60
2018-02-09T04:44:13.623Z,71.90
2018-02-09T04:45:13.609Z,70.30
2018-02-09T04:46:13.596Z,69.60
2018-02-09T04:47:13.573Z,69.30
2018-02-09T04:48:13.658Z,72.10
2018-02-09T04:49:13.555Z,71.00
2018-02-09T04:50:13.544Z,70.20
2018-02-09T04:51:13.536Z,71.70
2018-02-09T04:52:13.517Z,69.80
2018-02-09T04:53:13.503Z,67.80
2018-02-09T04:54:13.495Z,73.20
2018-02-09T04:55:13.477Z,68.30
2018-02-09T04:56:13.469Z,73.40
2018-02-09T04:57:13.452Z,73.10
2018-02-09T04:58:13.440Z,71.80
2018-02-09T04:59:13.429Z,67.00
2018-02-09T05:00:13.404Z,70.50
2018-02-09T05:01:13.397Z,70.20
2018-02-09T05:02:13.387Z,72.30
2018-02-09T05:03:13.373Z,68.70
2018-02-09T05:04:13.365Z,72.80
2018-02-09T05:05:13.349Z,73.20
2018-02-09T05:06:13.336Z,69.70
2018-02-09T05:07:13.321Z,70.00
2018-02-09T05:08:13.305Z,66.40
2018-02-09T05:09:13.293Z,72.60
2018-02-09T05:10:13.286Z,69.50
2018-02-09T05:11:13.272Z,73.50
2018-02-09T05:12:13.257Z,71.00
2018-02-09T05:13:13.242Z,71.60
2018-02-09T05:14:13.233Z,69.90
2018-02-09T05:15:13.230Z,73.30
2018-02-09T05:16:13.206Z,73.20
2018-02-09T05:17:13.210Z,72.00
2018-02-09T05:18:13.175Z,66.60
2018-02-09T05:19:13.164Z,68.20
2018-02-09T05:20:13.165Z,71.50
2018-02-09T05:21:13.134Z,70.70
2018-02-09T05:22:13.127Z,71.90
2018-02-09T05:23:13.113Z,75.10
2018-02-09T05:24:13.094Z,73.90
2018-02-09T05:25:13.083Z,72.30
2018-02-09T05:26:13.087Z,71.90
2018-02-09T05:27:13.080Z,74.20
2018-02-09T05:28:13.047Z,71.20
2018-02-09T05:29:13.027Z,75.50
2018-02-09T05:30:13.021Z,67.50
2018-02-09T05:31:13.005Z,70.00
2018-02-09T05:32:13.003Z,71.70
2018-02-09T05:33:12.981Z,69.20
2018-02-09T05:34:12.970Z,73.30
2018-02-09T05:35:12.956Z,71.20
2018-02-09T05:36:12.941Z,70.40
2018-02-09T05:37:12.933Z,70.10
2018-02-09T05:38:12.919Z,69.50
2018-02-09T05:39:12.903Z,67.60
2018-02-09T05:40:12.980Z,70.50
2018-02-09T05:41:12.880Z,69.80
2018-02-09T05:42:12.878Z,71.30
2018-02-09T05:43:12.856Z,66.60
2018-02-09T05:44:12.837Z,70.90
2018-02-09T05:45:12.888Z,69.40
2018-02-09T05:46:12.809Z,67.70
2018-02-09T05:47:12.799Z,73.40
2018-02-09T05:48:12.788Z,71.70
2018-02-09T05:49:12.774Z,71.90
2018-02-09T05:50:12.764Z,74.30
2018-02-09T05:51:12.747Z,67.50
2018-02-09T05:52:12.733Z,73.60
2018-02-09T05:53:12.736Z,67.60
2018-02-09T05:54:13.282Z,70.00
2018-02-09T05:55:12.713Z,69.90
2018-02-09T05:56:13.285Z,66.30
2018-02-09T05:57:12.673Z,72.70
2018-02-09T05:58:12.655Z,69.50
2018-02-09T05:59:12.634Z,68.10
2018-02-09T06:00:12.626Z,71.50
2018-02-09T06:01:12.614Z,75.00
2018-02-09T06:02:12.601Z,75.50
2018-02-09T06:03:12.593Z,69.30
2018-02-09T06:04:12.573Z,76.90
2018-02-09T06:05:12.566Z,78.00
2018-02-09T06:06:12.550Z,70.00
2018-02-09T06:07:12.538Z,71.10
2018-02-09T06:08:12.524Z,75.50
2018-02-09T06:09:12.509Z,77.30
2018-02-09T06:10:12.502Z,73.90
2018-02-09T06:11:12.484Z,76.30
2018-02-09T06:12:12.471Z,73.20
2018-02-09T06:13:12.453Z,78.60
2018-02-09T06:14:12.442Z,72.10
2018-02-09T06:15:12.431Z,73.80
2018-02-09T06:16:12.421Z,71.90
2018-02-09T06:17:12.404Z,74.20
2018-02-09T06:18:12.388Z,73.60
2018-02-09T06:19:12.387Z,75.10
2018-02-09T06:20:12.367Z,69.20
2018-02-09T06:21:12.352Z,71.40
2018-02-09T06:22:12.339Z,69.60
2018-02-09T06:23:12.323Z,72.50
2018-02-09T06:24:12.305Z,73.20
2018-02-09T06:25:12.297Z,74.00
2018-02-09T06:26:12.286Z,66.90
2018-02-09T06:27:12.275Z,71.40
2018-02-09T06:28:12.263Z,71.50
2018-02-09T06:29:12.249Z,74.80
2018-02-09T06:30:12.240Z,69.40
2018-02-09T06:31:12.218Z,69.50
2018-02-09T06:32:12.208Z,68.80
2018-02-09T06:33:12.223Z,76.30
2018-02-09T06:34:12.190Z,70.30
2018-02-09T06:35:12.182Z,73.30
2018-02-09T06:36:12.155Z,77.00
2018-02-09T06:37:12.138Z,74.00
2018-02-09T06:38:12.129Z,74.60
2018-02-09T06:39:12.112Z,71.10
2018-02-09T06:40:12.107Z,69.20
2018-02-09T06:41:12.092Z,67.60
2018-02-09T06:42:12.075Z,69.20
2018-02-09T06:43:12.067Z,69.90
2018-02-09T06:44:12.049Z,67.70
2018-02-09T06:45:12.033Z,69.50
2018-02-09T06:46:12.023Z,70.70
2018-02-09T06:47:12.009Z,71.30
2018-02-09T06:48:11.996Z,70.80
2018-02-09T06:49:11.982Z,65.30
2018-02-09T06:50:11.968Z,68.70
2018-02-09T06:51:11.958Z,68.10
2018-02-09T06:52:11.940Z,68.20
2018-02-09T06:53:11.928Z,66.60
2018-02-09T06:54:11.913Z,64.60
2018-02-09T06:55:11.901Z,68.00
2018-02-09T06:56:11.885Z,72.30
2018-02-09T06:57:11.878Z,68.90
2018-02-09T06:58:11.857Z,67.70
2018-02-09T06:59:11.847Z,68.20
2018-02-09T07:00:11.869Z,66.40
2018-02-09T07:01:11.823Z,67.20
2018-02-09T07:02:11.809Z,70.00
2018-02-09T07:03:11.796Z,69.20
2018-02-09T07:04:11.783Z,69.70
2018-02-09T07:05:11.768Z,67.40
2018-02-09T07:06:11.755Z,67.00
2018-02-09T07:07:11.742Z,67.00
2018-02-09T07:08:11.729Z,67.70
2018-02-09T07:09:11.714Z,66.10
2018-02-09T07:10:11.705Z,65.60
2018-02-09T07:11:11.689Z,70.50
2018-02-09T07:12:11.681Z,68.70
2018-02-09T07:13:11.666Z,65.90
2018-02-09T07:14:11.652Z,67.80
2018-02-09T07:15:11.637Z,69.90
2018-02-09T07:16:11.627Z,66.40
2018-02-09T07:17:11.612Z,61.80
2018-02-09T07:18:11.598Z,66.90
2018-02-09T07:19:11.587Z,62.90
2018-02-09T07:20:11.581Z,69.80
2018-02-09T07:21:11.560Z,66.50
2018-02-09T07:22:11.550Z,70.10
2018-02-09T07:23:11.537Z,63.00
2018-02-09T07:24:11.526Z,68.10
2018-02-09T07:25:11.509Z,71.10
2018-02-09T07:26:11.497Z,68.90
2018-02-09T07:27:11.485Z,68.20
2018-02-09T07:28:11.466Z,69.20
2018-02-09T07:29:11.456Z,64.70
2018-02-09T07:30:11.445Z,64.80
2018-02-09T07:31:11.438Z,66.90
2018-02-09T07:32:11.422Z,67.00
2018-02-09T07:33:11.410Z,65.60
2018-02-09T07:34:11.392Z,69.10
2018-02-09T07:35:11.379Z,73.10
2018-02-09T07:36:11.365Z,71.20
2018-02-09T07:37:11.354Z,70.30
2018-02-09T07:38:11.342Z,68.60
2018-02-09T07:39:11.331Z,69.00
2018-02-09T07:40:11.317Z,72.40
2018-02-09T07:41:11.304Z,69.00
2018-02-09T07:42:11.290Z,71.80
2018-02-09T07:43:11.293Z,71.50
2018-02-09T07:44:11.262Z,70.10
2018-02-09T07:45:11.255Z,70.90
2018-02-09T07:46:11.240Z,74.30
2018-02-09T07:47:11.227Z,75.00
2018-02-09T07:48:11.214Z,71.90
2018-02-09T07:49:11.203Z,70.00
2018-02-09T07:50:11.187Z,69.10
2018-02-09T07:51:11.181Z,71.10
2018-02-09T07:52:11.163Z,72.10
2018-02-09T07:53:11.150Z,72.10
2018-02-09T07:54:11.137Z,73.30
2018-02-09T07:55:11.145Z,70.00
2018-02-09T07:56:11.119Z,66.80
2018-02-09T07:57:11.100Z,69.30
2018-02-09T07:58:11.086Z,73.80
2018-02-09T07:59:11.076Z,72.70
2018-02-09T08:00:11.063Z,70.40
2018-02-09T08:01:11.050Z,70.30
2018-02-09T08:02:11.064Z,72.80
2018-02-09T08:03:11.028Z,71.70
2018-02-09T08:04:11.016Z,70.60
2018-02-09T08:05:10.994Z,68.10
2018-02-09T08:06:10.989Z,73.10
2018-02-09T08:07:10.975Z,70.70
2018-02-09T08:08:10.961Z,71.20
2018-02-09T08:09:10.969Z,72.90
2018-02-09T08:10:10.938Z,70.60
2018-02-09T08:11:10.923Z,68.70
2018-02-09T08:12:10.926Z,73.70
2018-02-09T08:13:10.896Z,75.00
2018-02-09T08:14:10.888Z,73.70
2018-02-09T08:15:10.875Z,75.70
2018-02-09T08:16:10.868Z,77.10
2018-02-09T08:17:10.849Z,77.60
2018-02-09T08:18:10.836Z,77.50
2018-02-09T08:19:10.824Z,83.70
2018-02-09T08:20:10.813Z,75.90
2018-02-09T08:21:10.799Z,77.70
2018-02-09T08:22:10.786Z,78.40
2018-02-09T08:23:10.776Z,78.00
2018-02-09T08:24:10.759Z,70.60
2018-02-09T08:25:10.747Z,72.30
2018-02-09T08:26:10.738Z,72.00
2018-02-09T08:27:10.722Z,69.60
2018-02-09T08:28:10.711Z,72.10
2018-02-09T08:29:10.700Z,71.00
2018-02-09T08:30:10.687Z,68.50
2018-02-09T08:31:10.674Z,71.60
2018-02-09T08:32:10.663Z,73.20
2018-02-09T08:33:10.648Z,65.90
2018-02-09T08:34:10.630Z,71.10
2018-02-09T08:35:10.623Z,73.30
2018-02-09T08:36:10.614Z,71.20
2018-02-09T08:37:10.598Z,67.60
2018-02-09T08:38:10.588Z,65.70
2018-02-09T08:39:10.580Z,68.00
2018-02-09T08:40:10.575Z,71.70
2018-02-09T08:41:10.551Z,72.20
2018-02-09T08:42:10.540Z,73.80
2018-02-09T08:43:10.537Z,67.40
2018-02-09T08:44:10.522Z,70.70
2018-02-09T08:45:10.505Z,68.90
2018-02-09T08:46:10.537Z,68.70
2018-02-09T08:47:10.480Z,68.00
2018-02-09T08:48:10.469Z,71.80
2018-02-09T08:49:10.468Z,68.20
2018-02-09T08:50:10.448Z,69.60
2018-02-09T08:51:10.435Z,69.60
2018-02-09T08:52:10.423Z,65.80
2018-02-09T08:53:10.411Z,68.00
2018-02-09T08:54:10.400Z,69.00
2018-02-09T08:55:10.388Z,68.80
2018-02-09T08:56:10.373Z,69.40
2018-02-09T08:57:10.363Z,68.30
2018-02-09T08:58:10.351Z,68.10
2018-02-09T08:59:10.344Z,68.00
2018-02-09T09:00:10.328Z,70.00
2018-02-09T09:01:10.320Z,65.10
2018-02-09T09:02:10.306Z,65.50
2018-02-09T09:03:10.295Z,65.40
2018-02-09T09:04:10.282Z,68.10
2018-02-09T09:05:10.270Z,66.50
2018-02-09T09:06:10.259Z,68.20
2018-02-09T09:07:10.248Z,62.80
2018-02-09T09:08:10.233Z,66.80
2018-02-09T09:09:10.224Z,65.30
2018-02-09T09:10:10.213Z,66.20
2018-02-09T09:11:10.201Z,66.00
2018-02-09T09:12:10.189Z,67.00
2018-02-09T09:13:10.180Z,69.20
2018-02-09T09:14:10.169Z,64.10
2018-02-09T09:15:10.158Z,64.30
2018-02-09T09:16:10.177Z,67.30
2018-02-09T09:17:10.137Z,66.50
2018-02-09T09:18:10.122Z,66.90
2018-02-09T09:19:10.112Z,67.70
2018-02-09T09:20:10.098Z,65.80
2018-02-09T09:21:10.087Z,62.30
2018-02-09T09:22:10.074Z,66.00
2018-02-09T09:23:10.064Z,66.40
2018-02-09T09:24:10.054Z,67.50
2018-02-09T09:25:10.042Z,64.30
2018-02-09T09:26:10.033Z,63.80
2018-02-09T09:27:10.022Z,62.70
2018-02-09T09:28:10.012Z,66.60
2018-02-09T09:29:09.997Z,64.10
2018-02-09T09:30:09.994Z,68.30
2018-02-09T09:31:09.975Z,61.30
2018-02-09T09:32:09.970Z,63.30
2018-02-09T09:33:09.954Z,63.10
2018-02-09T09:34:09.943Z,66.80
2018-02-09T09:35:09.934Z,63.00
2018-02-09T09:36:09.917Z,67.80
2018-02-09T09:37:09.915Z,65.00
2018-02-09T09:38:09.901Z,65.30
2018-02-09T09:39:09.894Z,63.30
2018-02-09T09:40:09.875Z,62.40
2018-02-09T09:41:09.859Z,66.90
2018-02-09T09:42:09.857Z,62.70
2018-02-09T09:43:09.848Z,60.90
2018-02-09T09:44:09.836Z,63.60
2018-02-09T09:45:09.820Z,63.60
2018-02-09T09:46:09.850Z,61.50
2018-02-09T09:47:09.804Z,63.40
2018-02-09T09:48:09.792Z,62.10
2018-02-09T09:49:09.781Z,64.50
2018-02-09T09:50:09.779Z,61.00
2018-02-09T09:51:09.767Z,65.60
2018-02-09T09:52:09.763Z,62.90
2018-02-09T09:53:09.744Z,61.40
2018-02-09T09:54:09.743Z,61.10
2018-02-09T09:55:09.729Z,65.20
2018-02-09T09:56:09.708Z,61.60
2018-02-09T09:57:09.700Z,63.20
2018-02-09T09:58:09.691Z,62.10
2018-02-09T09:59:09.680Z,61.60
2018-02-09T10:00:09.670Z,58.80
2018-02-09T10:01:09.662Z,59.90
2018-02-09T10:02:09.648Z,62.30
2018-02-09T10:03:09.640Z,59.80
2018-02-09T10:04:09.626Z,60.00
2018-02-09T10:05:09.616Z,59.00
2018-02-09T10:06:09.609Z,59.80
2018-02-09T10:07:09.600Z,58.00
2018-02-09T10:08:09.589Z,60.00
2018-02-09T10:09:09.580Z,59.10
2018-02-09T10:10:09.563Z,53.70
2018-02-09T10:11:09.555Z,56.80
2018-02-09T10:12:09.551Z,54.10
2018-02-09T10:13:09.540Z,57.00
2018-02-09T10:14:09.531Z,58.70
2018-02-09T10:15:09.522Z,60.40
2018-02-09T10:16:09.551Z,58.30
2018-02-09T10:17:09.502Z,59.10
2018-02-09T10:18:09.493Z,54.50
2018-02-09T10:19:09.487Z,52.50
2018-02-09T10:20:09.487Z,56.30
2018-02-09T10:21:09.469Z,53.90
2018-02-09T10:22:09.456Z,57.50
2018-02-09T10:23:09.450Z,55.90
2018-02-09T10:24:09.440Z,57.30
2018-02-09T10:25:09.430Z,56.50
2018-02-09T10:26:09.411Z,54.80
2018-02-09T10:27:09.414Z,57.30
2018-02-09T10:28:09.403Z,56.70
2018-02-09T10:29:09.394Z,56.90
2018-02-09T10:30:09.386Z,58.30
2018-02-09T10:31:09.378Z,60.20
2018-02-09T10:32:09.380Z,59.20
2018-02-09T10:33:09.369Z,57.40
2018-02-09T10:34:09.355Z,60.40
2018-02-09T10:35:09.344Z,55.40
2018-02-09T10:36:09.366Z,57.60
2018-02-09T10:37:09.328Z,62.20
2018-02-09T10:38:09.318Z,55.30
2018-02-09T10:39:09.307Z,57.30
2018-02-09T10:40:09.304Z,55.50
2018-02-09T10:41:09.298Z,59.20
2018-02-09T10:42:09.287Z,57.30
2018-02-09T10:43:09.277Z,54.80
2018-02-09T10:44:09.270Z,57.20
2018-02-09T10:45:09.272Z,60.40
2018-02-09T10:46:09.296Z,60.50
2018-02-09T10:47:09.242Z,60.50
2018-02-09T10:48:09.235Z,59.30
2018-02-09T10:49:09.255Z,57.80
2018-02-09T10:50:09.221Z,54.30
2018-02-09T10:51:09.215Z,53.80
2018-02-09T10:52:09.208Z,57.20
2018-02-09T10:53:09.200Z,56.60
2018-02-09T10:54:09.190Z,56.30
2018-02-09T10:55:09.183Z,51.30
2018-02-09T10:56:09.191Z,54.70
2018-02-09T10:57:09.170Z,50.40
2018-02-09T10:58:09.162Z,51.10
2018-02-09T10:59:09.154Z,51.70
2018-02-09T11:00:09.146Z,51.70
2018-02-09T11:01:09.141Z,46.40
2018-02-09T11:02:09.131Z,46.80
2018-02-09T11:03:09.126Z,49.50
2018-02-09T11:04:09.110Z,47.20
2018-02-09T11:05:09.112Z,48.60
2018-02-09T11:06:09.110Z,48.20
2018-02-09T11:07:09.096Z,50.90
2018-02-09T11:08:09.088Z,49.30
2018-02-09T11:09:09.081Z,50.90
2018-02-09T11:10:09.076Z,48.80
2018-02-09T11:11:09.070Z,51.60
2018-02-09T11:12:09.064Z,50.90
2018-02-09T11:13:09.064Z,48.60
2018-02-09T11:14:09.045Z,49.20
2018-02-09T11:15:09.042Z,48.30
2018-02-09T11:16:09.080Z,47.40
2018-02-09T11:17:09.025Z,48.70
2018-02-09T11:18:09.020Z,51.60
2018-02-09T11:19:09.012Z,54.40
2018-02-09T11:20:09.008Z,49.40
2018-02-09T11:21:08.999Z,53.00
2018-02-09T11:22:08.996Z,48.90
2018-02-09T11:23:08.990Z,53.10
2018-02-09T11:24:08.980Z,48.30
2018-02-09T11:25:08.971Z,46.60
2018-02-09T11:26:08.973Z,50.20
2018-02-09T11:27:09.006Z,52.00
2018-02-09T11:28:08.960Z,50.30
2018-02-09T11:29:08.949Z,52.70
2018-02-09T11:30:08.943Z,55.40
2018-02-09T11:31:08.937Z,53.00
2018-02-09T11:32:08.929Z,49.20
2018-02-09T11:33:08.924Z,51.20
2018-02-09T11:34:08.920Z,48.50
2018-02-09T11:35:08.910Z,51.00
2018-02-09T11:36:08.908Z,51.80
2018-02-09T11:37:08.900Z,46.40
2018-02-09T11:38:08.894Z,49.50
2018-02-09T11:39:08.907Z,49.80
2018-02-09T11:40:08.907Z,49.60
2018-02-09T11:41:08.871Z,48.10
2018-02-09T11:42:08.895Z,49.60
2018-02-09T11:43:08.862Z,48.40
2018-02-09T11:44:08.857Z,51.10
2018-02-09T11:45:08.848Z,50.50
2018-02-09T11:46:08.858Z,48.20
2018-02-09T11:47:08.839Z,48.50
2018-02-09T11:48:08.836Z,46.10
2018-02-09T11:49:08.828Z,48.60
2018-02-09T11:50:08.813Z,49.70
2018-02-09T11:51:08.815Z,46.10
2018-02-09T11:52:08.836Z,43.40
2018-02-09T11:53:08.807Z,45.30
2018-02-09T11:54:08.800Z,45.00
2018-02-09T11:55:08.800Z,47.60
2018-02-09T11:56:08.793Z,45.80
2018-02-09T11:57:08.787Z,42.60
2018-02-09T11:58:08.801Z,42.80
2018-02-09T11:59:08.779Z,45.50
2018-02-09T12:00:08.770Z,44.40
2018-02-09T12:01:08.767Z,43.30
2018-02-09T12:02:08.764Z,42.70
2018-02-09T12:03:08.759Z,40.10
2018-02-09T12:04:08.791Z,41.80
2018-02-09T12:05:08.749Z,41.50
2018-02-09T12:06:08.746Z,43.50
2018-02-09T12:07:08.744Z,40.40
2018-02-09T12:08:08.735Z,38.00
2018-02-09T12:09:08.732Z,38.00
2018-02-09T12:10:08.728Z,32.60
2018-02-09T12:11:08.724Z,35.10
2018-02-09T12:12:08.720Z,38.80
2018-02-09T12:13:08.716Z,41.00
2018-02-09T12:14:08.714Z,37.70
2018-02-09T12:15:08.712Z,36.20
2018-02-09T12:16:08.723Z,33.50
2018-02-09T12:17:08.713Z,36.80
2018-02-09T12:18:08.696Z,35.90
2018-02-09T12:19:08.692Z,33.50
2018-02-09T12:20:08.688Z,32.90
2018-02-09T12:21:08.682Z,32.60
2018-02-09T12:22:08.679Z,31.70
2018-02-09T12:23:08.674Z,32.20
2018-02-09T12:24:08.670Z,31.30
2018-02-09T12:25:08.665Z,30.60
2018-02-09T12:26:08.666Z,31.70
2018-02-09T12:27:08.659Z,32.50
2018-02-09T12:28:08.650Z,32.10
2018-02-09T12:29:08.658Z,32.30
2018-02-09T12:30:08.642Z,33.90
2018-02-09T12:31:08.637Z,30.30
2018-02-09T12:32:08.633Z,32.30
2018-02-09T12:33:08.629Z,32.20
2018-02-09T12:34:08.624Z,33.70
2018-02-09T12:35:08.629Z,31.90
2018-02-09T12:36:08.614Z,33.30
2018-02-09T12:37:08.608Z,35.20
2018-02-09T12:38:08.660Z,33.80
2018-02-09T12:39:08.605Z,36.50
2018-02-09T12:40:08.596Z,36.10
2018-02-09T12:41:08.587Z,34.30
2018-02-09T12:42:08.637Z,37.30
2018-02-09T12:43:08.582Z,38.40
2018-02-09T12:44:08.577Z,36.30
2018-02-09T12:45:08.571Z,38.60
2018-02-09T12:46:08.574Z,38.00
2018-02-09T12:47:08.561Z,39.00
2018-02-09T12:48:08.556Z,40.70
2018-02-09T12:49:08.548Z,39.30
2018-02-09T12:50:08.540Z,38.10
2018-02-09T12:51:08.539Z,35.20
2018-02-09T12:52:08.522Z,33.10